Terminal Aerodrome Forecast
Issued by NWS

Home | Current Version | Previous Version | Text Only | Print | Product List | Glossary On
Versions: 1 2 3 4 5 6 7 8 9 10 11 12 13 14 15 16 17 18 19 20 21 22 23
000
FTUS46 KLOX 160300 AAA
TAFLGB
TAF AMD
KLGB 160352Z 1604/1624 30008KT P6SM SKC
     FM160600 VRB03KT 4SM BR BKN007
     FM160800 13005KT 6SM BR OVC010
     FM161800 17007KT P6SM BKN013
     FM162000 19008KT P6SM SKC=

USA.gov is the U.S. government's official web portal to all federal, state and local government web resources and services.